createdAt,value
2022-09-14T00:01:45.260Z,99056.03
2022-09-14T00:04:17.273Z,99052.38
2022-09-14T00:06:47.372Z,99048.06
2022-09-14T00:09:17.828Z,99056.03
2022-09-14T00:11:46.467Z,99056.63
2022-09-14T00:14:15.608Z,99064.66
2022-09-14T00:16:45.188Z,99060.97
2022-09-14T00:19:20.142Z,99063.16
2022-09-14T00:21:51.939Z,99060.31
2022-09-14T00:24:20.880Z,99054.91
2022-09-14T00:26:51.693Z,99053.72
2022-09-14T00:29:20.789Z,99051.16
2022-09-14T00:31:49.746Z,99042.53
2022-09-14T00:34:20.007Z,99051.81
2022-09-14T00:36:50.262Z,99051.09
2022-09-14T00:39:20.027Z,99058.72
2022-09-14T00:41:49.756Z,99048.94
2022-09-14T00:44:59.333Z,99059.62
2022-09-14T00:47:30.212Z,99049.78
2022-09-14T00:50:01.430Z,99051.47
2022-09-14T00:52:32.847Z,99039.53
2022-09-14T00:55:01.809Z,99037.94
2022-09-14T00:57:33.684Z,99034.06
2022-09-14T01:00:02.730Z,99018.75
2022-09-14T01:02:32.334Z,99021.03
2022-09-14T01:05:02.423Z,99024.66
2022-09-14T01:07:40.236Z,99027.75
2022-09-14T01:10:17.237Z,99024.50
2022-09-14T01:12:50.640Z,99026.81
2022-09-14T01:15:25.265Z,99029.75
2022-09-14T01:17:59.888Z,99024.66
2022-09-14T01:20:34.285Z,99017.75
2022-09-14T01:23:10.125Z,99016.19
2022-09-14T01:25:59.953Z,99016.25
2022-09-14T01:28:33.801Z,99021.44
2022-09-14T01:31:05.250Z,99023.91
2022-09-14T01:33:38.166Z,99016.88
2022-09-14T01:36:08.531Z,99014.81
2022-09-14T01:38:40.142Z,99007.63
2022-09-14T01:41:10.838Z,99011.88
2022-09-14T01:43:43.032Z,99004.56
2022-09-14T01:46:14.716Z,99003.63
2022-09-14T01:49:02.856Z,99002.00
2022-09-14T01:51:35.929Z,98997.75
2022-09-14T01:54:08.789Z,98993.09
2022-09-14T01:56:41.556Z,98983.28
2022-09-14T01:59:15.037Z,98981.16
2022-09-14T02:01:50.356Z,98973.41
2022-09-14T02:04:46.269Z,98971.94
2022-09-14T02:07:15.218Z,98967.19
2022-09-14T02:09:44.439Z,98967.19
2022-09-14T02:12:15.014Z,98963.28
2022-09-14T02:14:45.732Z,98961.09
2022-09-14T02:17:15.084Z,98957.78
2022-09-14T02:19:48.260Z,98950.31
2022-09-14T02:22:16.829Z,98941.31
2022-09-14T02:24:45.989Z,98947.56
2022-09-14T02:27:14.579Z,98955.31
2022-09-14T02:29:43.360Z,98947.22
2022-09-14T02:32:22.514Z,98942.47
2022-09-14T02:34:57.695Z,98940.91
2022-09-14T02:37:31.427Z,98937.72
2022-09-14T02:40:06.656Z,98944.94
2022-09-14T02:42:38.293Z,98938.62
2022-09-14T02:45:12.460Z,98947.63
2022-09-14T02:47:55.304Z,98942.69
2022-09-14T02:50:28.053Z,98937.75
2022-09-14T02:53:00.979Z,98930.75
2022-09-14T02:55:39.397Z,98935.88
2022-09-14T02:58:10.561Z,98937.28
2022-09-14T03:00:40.660Z,98940.13
2022-09-14T03:03:13.067Z,98922.78
2022-09-14T03:05:41.952Z,98917.38
2022-09-14T03:08:11.712Z,98916.88
2022-09-14T03:10:43.443Z,98916.16
2022-09-14T03:13:12.639Z,98921.53
2022-09-14T03:15:41.655Z,98922.62
2022-09-14T03:18:14.402Z,98921.31
2022-09-14T03:20:46.936Z,98920.00
2022-09-14T03:23:16.208Z,98922.62
2022-09-14T03:25:45.778Z,98920.00
2022-09-14T03:28:14.450Z,98916.28
2022-09-14T03:30:43.255Z,98909.66
2022-09-14T03:33:15.344Z,98912.28
2022-09-14T03:35:43.917Z,98907.09
2022-09-14T03:38:12.705Z,98910.09
2022-09-14T03:40:41.295Z,98907.81
2022-09-14T03:43:12.356Z,98908.78
2022-09-14T03:45:42.377Z,98924.00
2022-09-14T03:48:11.503Z,98920.50
2022-09-14T03:50:41.467Z,98919.84
2022-09-14T03:53:10.330Z,98916.28
2022-09-14T03:55:41.250Z,98923.12
2022-09-14T03:58:09.883Z,98923.06
2022-09-14T04:00:38.381Z,98922.22
2022-09-14T04:03:07.278Z,98929.31
2022-09-14T04:05:35.859Z,98923.06
2022-09-14T04:08:05.882Z,98920.44
2022-09-14T04:10:34.971Z,98922.03
2022-09-14T04:13:04.033Z,98922.22
2022-09-14T04:15:32.792Z,98917.91
2022-09-14T04:18:01.695Z,98920.09
2022-09-14T04:20:30.301Z,98915.62
2022-09-14T04:22:58.871Z,98899.53
2022-09-14T04:25:29.098Z,98896.81
2022-09-14T04:28:19.057Z,98886.09
2022-09-14T04:30:46.586Z,98902.44
2022-09-14T04:33:15.134Z,98897.50
2022-09-14T04:35:43.731Z,98891.00
2022-09-14T04:38:12.526Z,98895.37
2022-09-14T04:40:43.382Z,98895.06
2022-09-14T04:43:12.018Z,98894.56
2022-09-14T04:45:40.910Z,98883.22
2022-09-14T04:48:09.759Z,98871.53
2022-09-14T04:50:38.774Z,98876.03
2022-09-14T04:53:07.339Z,98873.31
2022-09-14T04:55:37.837Z,98863.00
2022-09-14T04:58:08.096Z,98872.47
2022-09-14T05:00:37.368Z,98866.03
2022-09-14T05:03:06.679Z,98858.09
2022-09-14T05:05:36.391Z,98871.94
2022-09-14T05:08:05.077Z,98874.44
2022-09-14T05:10:33.911Z,98870.12
2022-09-14T05:13:02.453Z,98878.31
2022-09-14T05:15:32.420Z,98881.88
2022-09-14T05:18:01.338Z,98886.78
2022-09-14T05:20:29.907Z,98893.13
2022-09-14T05:22:58.489Z,98893.56
2022-09-14T05:25:27.535Z,98889.97
2022-09-14T05:27:56.107Z,98877.94
2022-09-14T05:30:24.725Z,98876.84
2022-09-14T05:32:57.960Z,98864.50
2022-09-14T05:35:26.739Z,98852.44
2022-09-14T05:37:55.567Z,98855.41
2022-09-14T05:40:26.376Z,98862.34
2022-09-14T05:42:55.030Z,98869.19
2022-09-14T05:45:23.505Z,98874.88
2022-09-14T05:47:52.066Z,98861.56
2022-09-14T05:50:23.209Z,98864.06
2022-09-14T05:52:51.767Z,98871.38
2022-09-14T05:55:20.337Z,98885.47
2022-09-14T05:57:50.207Z,98884.16
2022-09-14T06:00:19.677Z,98876.28
2022-09-14T06:02:49.339Z,98870.47
2022-09-14T06:05:18.585Z,98874.63
2022-09-14T06:07:52.339Z,98869.94
2022-09-14T06:10:21.624Z,98865.66
2022-09-14T06:12:54.802Z,98864.31
2022-09-14T06:15:24.701Z,98851.81
2022-09-14T06:17:53.371Z,98849.78
2022-09-14T06:20:21.931Z,98850.34
2022-09-14T06:22:52.176Z,98859.06
2022-09-14T06:25:20.726Z,98866.75
2022-09-14T06:27:49.283Z,98865.16
2022-09-14T06:30:18.139Z,98860.63
2022-09-14T06:32:46.726Z,98867.47
2022-09-14T06:35:15.702Z,98868.31
2022-09-14T06:37:44.766Z,98874.28
2022-09-14T06:40:14.748Z,98886.88
2022-09-14T06:42:43.439Z,98899.22
2022-09-14T06:45:12.311Z,98904.13
2022-09-14T06:47:40.885Z,98905.47
2022-09-14T06:50:09.767Z,98909.00
2022-09-14T06:52:39.613Z,98908.78
2022-09-14T06:55:09.075Z,98904.25
2022-09-14T06:57:42.914Z,98902.44
2022-09-14T07:00:13.117Z,98892.84
2022-09-14T07:02:41.771Z,98884.88
2022-09-14T07:05:10.573Z,98873.53
2022-09-14T07:07:39.421Z,98863.56
2022-09-14T07:10:08.671Z,98863.09
2022-09-14T07:12:38.572Z,98862.25
2022-09-14T07:15:10.463Z,98861.12
2022-09-14T07:17:39.009Z,98883.84
2022-09-14T07:20:08.832Z,98894.56
2022-09-14T07:22:37.707Z,98891.38
2022-09-14T07:25:07.571Z,98894.00
2022-09-14T07:27:39.464Z,98884.59
2022-09-14T07:30:09.707Z,98883.56
2022-09-14T07:32:38.237Z,98884.69
2022-09-14T07:35:07.328Z,98889.84
2022-09-14T07:37:36.154Z,98885.69
2022-09-14T07:40:05.091Z,98892.12
2022-09-14T07:42:33.668Z,98892.84
2022-09-14T07:45:03.951Z,98879.50
2022-09-14T07:47:32.615Z,98877.12
2022-09-14T07:50:01.199Z,98870.47
2022-09-14T07:52:32.801Z,98874.03
2022-09-14T07:55:04.554Z,98870.97
2022-09-14T07:57:54.599Z,98865.28
2022-09-14T08:00:24.152Z,98869.91
2022-09-14T08:02:53.860Z,98865.84
2022-09-14T08:05:23.766Z,98861.59
2022-09-14T08:07:55.075Z,98837.09
2022-09-14T08:10:24.028Z,98835.59
2022-09-14T08:12:52.920Z,98836.72
2022-09-14T08:15:27.707Z,98848.72
2022-09-14T08:17:56.956Z,98843.22
2022-09-14T08:20:25.493Z,98853.75
2022-09-14T08:22:53.939Z,98846.31
2022-09-14T08:25:22.469Z,98851.19
2022-09-14T08:27:51.107Z,98846.12
2022-09-14T08:30:19.916Z,98848.34
2022-09-14T08:32:49.747Z,98837.13
2022-09-14T08:35:18.724Z,98828.78
2022-09-14T08:37:52.510Z,98821.31
2022-09-14T08:40:21.164Z,98824.78
2022-09-14T08:42:49.860Z,98832.25
2022-09-14T08:45:18.404Z,98842.34
2022-09-14T08:47:47.075Z,98846.16
2022-09-14T08:50:18.656Z,98839.72
2022-09-14T08:52:52.885Z,98844.03
2022-09-14T08:55:31.273Z,98835.44
2022-09-14T08:58:07.492Z,98836.03
2022-09-14T09:00:42.363Z,98825.84
2022-09-14T09:03:29.671Z,98827.13
2022-09-14T09:06:08.019Z,98832.56
2022-09-14T09:08:50.854Z,98828.28
2022-09-14T09:11:21.411Z,98822.63
2022-09-14T09:13:55.632Z,98816.12
2022-09-14T09:16:26.352Z,98819.31
2022-09-14T09:18:59.575Z,98836.75
2022-09-14T09:21:32.847Z,98847.53
2022-09-14T09:24:05.768Z,98847.56
2022-09-14T09:26:34.238Z,98853.06
2022-09-14T09:29:05.822Z,98861.75
2022-09-14T09:31:54.910Z,98858.53
2022-09-14T09:34:28.131Z,98861.47
2022-09-14T09:37:15.235Z,98864.94
2022-09-14T09:39:44.579Z,98870.34
2022-09-14T09:42:15.518Z,98862.75
2022-09-14T09:45:02.469Z,98869.50
2022-09-14T09:47:35.550Z,98857.09
2022-09-14T09:50:06.573Z,98859.25
2022-09-14T09:52:36.562Z,98851.03
2022-09-14T09:55:07.123Z,98848.88
2022-09-14T09:57:37.700Z,98853.72
2022-09-14T10:00:13.119Z,98857.87
2022-09-14T10:02:42.218Z,98857.97
2022-09-14T10:05:21.328Z,98858.03
2022-09-14T10:07:56.979Z,98869.66
2022-09-14T10:10:40.123Z,98876.69
2022-09-14T10:13:19.197Z,98887.44
2022-09-14T10:15:48.978Z,98890.34
2022-09-14T10:18:19.412Z,98880.87
2022-09-14T10:21:07.176Z,98872.75
2022-09-14T10:23:38.517Z,98868.00
2022-09-14T10:26:28.773Z,98863.81
2022-09-14T10:29:21.300Z,98857.84
2022-09-14T10:31:51.436Z,98851.94
2022-09-14T10:34:21.364Z,98851.00
2022-09-14T10:36:54.939Z,98850.81
2022-09-14T10:39:27.331Z,98849.50
2022-09-14T10:42:02.844Z,98854.44
2022-09-14T10:44:53.225Z,98849.50
2022-09-14T10:47:37.558Z,98862.44
2022-09-14T10:50:21.971Z,98851.44
2022-09-14T10:52:58.578Z,98854.53
2022-09-14T10:55:35.361Z,98855.09
2022-09-14T10:58:21.325Z,98847.12
2022-09-14T11:01:00.149Z,98858.63
2022-09-14T11:03:42.765Z,98873.69
2022-09-14T11:06:25.083Z,98869.66
2022-09-14T11:08:57.529Z,98857.22
2022-09-14T11:11:39.281Z,98860.88
2022-09-14T11:14:24.862Z,98850.91
2022-09-14T11:17:09.310Z,98847.00
2022-09-14T11:19:42.904Z,98840.28
2022-09-14T11:22:15.777Z,98841.00
2022-09-14T11:24:47.397Z,98841.19
2022-09-14T11:27:24.318Z,98834.31
2022-09-14T11:29:55.645Z,98836.59
2022-09-14T11:32:28.707Z,98839.16
2022-09-14T11:35:01.407Z,98847.81
2022-09-14T11:37:36.457Z,98839.44
2022-09-14T11:40:10.687Z,98834.00
2022-09-14T11:42:46.383Z,98826.47
2022-09-14T11:45:20.031Z,98816.97
2022-09-14T11:47:53.917Z,98804.84
2022-09-14T11:50:25.307Z,98809.84
2022-09-14T11:53:10.385Z,98823.03
2022-09-14T11:55:43.966Z,98822.75
2022-09-14T11:58:20.182Z,98819.69
2022-09-14T12:01:26.745Z,98821.66
2022-09-14T12:04:07.673Z,98812.00
2022-09-14T12:07:00.382Z,98804.31
2022-09-14T12:09:43.572Z,98804.56
2022-09-14T12:12:36.661Z,98808.75
2022-09-14T12:15:35.130Z,98810.53
2022-09-14T12:18:22.298Z,98797.84
2022-09-14T12:20:59.028Z,98798.38
2022-09-14T12:23:30.672Z,98789.13
2022-09-14T12:26:38.782Z,98788.38
2022-09-14T12:29:26.701Z,98792.00
2022-09-14T12:32:07.078Z,98786.66
2022-09-14T12:34:35.663Z,98787.28
2022-09-14T12:37:32.053Z,98781.25
2022-09-14T12:40:38.305Z,98772.56
2022-09-14T12:43:50.348Z,98763.31
2022-09-14T12:46:41.859Z,98760.34
2022-09-14T12:49:31.332Z,98751.56
2022-09-14T12:52:05.534Z,98750.19
2022-09-14T12:54:51.067Z,98735.59
2022-09-14T12:57:44.548Z,98735.06
2022-09-14T13:00:15.675Z,98729.28
2022-09-14T13:02:50.578Z,98724.69
2022-09-14T13:05:23.758Z,98716.56
2022-09-14T13:07:52.795Z,98710.34
2022-09-14T13:10:25.313Z,98709.44
2022-09-14T13:12:54.257Z,98707.38
2022-09-14T13:15:26.003Z,98710.19
2022-09-14T13:17:59.086Z,98709.16
2022-09-14T13:20:29.992Z,98714.31
2022-09-14T13:22:58.726Z,98720.50
2022-09-14T13:25:34.271Z,98721.47
2022-09-14T13:28:05.561Z,98721.84
2022-09-14T13:30:35.595Z,98713.37
2022-09-14T13:33:04.978Z,98725.09
2022-09-14T13:35:37.950Z,98722.97
2022-09-14T13:38:10.174Z,98724.22
2022-09-14T13:40:38.913Z,98725.72
2022-09-14T13:43:08.019Z,98733.22
2022-09-14T13:45:37.131Z,98733.22
2022-09-14T13:48:06.475Z,98725.16
2022-09-14T13:50:36.773Z,98721.47
2022-09-14T13:53:05.482Z,98722.19
2022-09-14T13:55:45.443Z,98714.47
2022-09-14T13:58:22.520Z,98717.53
2022-09-14T14:00:59.702Z,98714.78
2022-09-14T14:03:32.124Z,98724.69
2022-09-14T14:06:06.320Z,98716.34
2022-09-14T14:08:37.320Z,98724.22
2022-09-14T14:11:07.659Z,98706.25
2022-09-14T14:13:38.391Z,98696.44
2022-09-14T14:16:18.064Z,98699.94
2022-09-14T14:18:56.519Z,98696.47
2022-09-14T14:21:29.888Z,98688.28
2022-09-14T14:24:17.908Z,98689.84
2022-09-14T14:26:50.464Z,98679.06
2022-09-14T14:29:19.869Z,98685.88
2022-09-14T14:31:48.607Z,98684.34
2022-09-14T14:34:22.759Z,98685.97
2022-09-14T14:36:52.931Z,98697.03
2022-09-14T14:39:22.720Z,98698.78
2022-09-14T14:41:52.501Z,98675.00
2022-09-14T14:44:24.240Z,98668.84
2022-09-14T14:46:53.160Z,98673.09
2022-09-14T14:49:21.974Z,98667.06
2022-09-14T14:51:52.198Z,98661.25
2022-09-14T14:54:21.340Z,98674.25
2022-09-14T14:56:51.547Z,98671.53
2022-09-14T14:59:29.388Z,98665.91
2022-09-14T15:01:59.204Z,98664.50
2022-09-14T15:04:28.215Z,98649.56
2022-09-14T15:07:00.644Z,98648.09
2022-09-14T15:09:32.054Z,98643.03
2022-09-14T15:12:00.622Z,98652.47
2022-09-14T15:14:29.424Z,98652.37
2022-09-14T15:17:00.269Z,98654.06
2022-09-14T15:19:29.627Z,98660.75
2022-09-14T15:22:01.579Z,98644.47
2022-09-14T15:24:30.962Z,98633.59
2022-09-14T15:26:59.846Z,98633.25
2022-09-14T15:29:28.406Z,98630.59
2022-09-14T15:31:57.452Z,98633.72
2022-09-14T15:34:26.095Z,98626.97
2022-09-14T15:36:55.567Z,98621.03
2022-09-14T15:39:27.727Z,98621.91
2022-09-14T15:41:56.934Z,98620.28
2022-09-14T15:44:26.102Z,98620.69
2022-09-14T15:46:57.069Z,98613.81
2022-09-14T15:49:26.571Z,98609.13
2022-09-14T15:51:57.268Z,98611.91
2022-09-14T15:54:32.677Z,98617.19
2022-09-14T15:57:06.317Z,98615.84
2022-09-14T15:59:35.652Z,98623.56
2022-09-14T16:02:04.713Z,98638.97
2022-09-14T16:04:36.480Z,98648.72
2022-09-14T16:07:09.647Z,98640.25
2022-09-14T16:09:41.278Z,98650.72
2022-09-14T16:12:10.959Z,98671.41
2022-09-14T16:14:39.883Z,98655.38
2022-09-14T16:17:11.228Z,98639.44
2022-09-14T16:19:40.144Z,98655.47
2022-09-14T16:22:08.748Z,98650.88
2022-09-14T16:24:37.324Z,98643.66
2022-09-14T16:27:07.765Z,98657.22
2022-09-14T16:29:36.451Z,98652.84
2022-09-14T16:32:05.086Z,98646.59
2022-09-14T16:34:33.962Z,98630.66
2022-09-14T16:37:02.528Z,98634.00
2022-09-14T16:39:31.718Z,98629.50
2022-09-14T16:42:00.878Z,98619.00
2022-09-14T16:44:31.217Z,98618.47
2022-09-14T16:47:00.438Z,98617.59
2022-09-14T16:49:29.124Z,98619.97
2022-09-14T16:52:00.559Z,98623.44
2022-09-14T16:54:31.650Z,98624.97
2022-09-14T16:57:01.323Z,98619.09
2022-09-14T16:59:31.521Z,98623.03
2022-09-14T17:02:00.149Z,98617.81
2022-09-14T17:04:28.810Z,98616.59
2022-09-14T17:06:57.701Z,98619.59
2022-09-14T17:09:28.406Z,98609.09
2022-09-14T17:11:57.666Z,98603.91
2022-09-14T17:14:27.349Z,98588.91
2022-09-14T17:16:57.661Z,98596.56
2022-09-14T17:19:27.057Z,98591.28
2022-09-14T17:21:55.853Z,98591.69
2022-09-14T17:24:25.907Z,98585.06
2022-09-14T17:26:54.812Z,98585.16
2022-09-14T17:29:23.485Z,98575.56
2022-09-14T17:31:55.138Z,98570.66
2022-09-14T17:34:25.634Z,98567.22
2022-09-14T17:36:54.267Z,98571.09
2022-09-14T17:39:22.847Z,98564.44
2022-09-14T17:41:51.827Z,98559.78
2022-09-14T17:44:20.653Z,98555.31
2022-09-14T17:46:53.025Z,98547.50
2022-09-14T17:49:23.008Z,98540.19
2022-09-14T17:51:53.111Z,98539.13
2022-09-14T17:54:22.000Z,98545.03
2022-09-14T17:56:50.644Z,98550.47
2022-09-14T17:59:21.119Z,98555.22
2022-09-14T18:01:50.260Z,98548.03
2022-09-14T18:04:19.489Z,98545.97
2022-09-14T18:06:49.621Z,98550.12
2022-09-14T18:09:22.464Z,98554.91
2022-09-14T18:11:52.126Z,98555.56
2022-09-14T18:14:20.776Z,98570.81
2022-09-14T18:16:49.571Z,98576.13
2022-09-14T18:19:18.522Z,98582.72
2022-09-14T18:21:52.127Z,98585.59
2022-09-14T18:24:23.417Z,98591.66
2022-09-14T18:26:52.470Z,98589.97
2022-09-14T18:29:23.432Z,98597.31
2022-09-14T18:31:52.754Z,98588.88
2022-09-14T18:34:22.501Z,98583.59
2022-09-14T18:36:52.405Z,98575.78
2022-09-14T18:39:23.009Z,98576.28
2022-09-14T18:41:53.769Z,98570.38
2022-09-14T18:44:23.097Z,98561.97
2022-09-14T18:46:52.575Z,98559.94
2022-09-14T18:49:24.096Z,98574.59
2022-09-14T18:51:53.067Z,98570.50
2022-09-14T18:54:27.601Z,98561.37
2022-09-14T18:56:57.141Z,98551.63
2022-09-14T18:59:26.964Z,98549.59
2022-09-14T19:01:55.647Z,98546.50
2022-09-14T19:04:24.865Z,98558.97
2022-09-14T19:06:53.931Z,98558.84
2022-09-14T19:09:26.821Z,98556.78
2022-09-14T19:11:56.248Z,98555.97
2022-09-14T19:14:25.347Z,98552.34
2022-09-14T19:16:57.736Z,98545.03
2022-09-14T19:19:27.014Z,98541.06
2022-09-14T19:21:56.563Z,98543.34
2022-09-14T19:24:31.073Z,98533.16
2022-09-14T19:27:00.317Z,98545.16
2022-09-14T19:29:30.010Z,98552.59
2022-09-14T19:31:58.927Z,98553.31
2022-09-14T19:34:29.149Z,98539.75
2022-09-14T19:36:58.131Z,98548.88
2022-09-14T19:39:28.639Z,98542.16
2022-09-14T19:41:57.580Z,98537.72
2022-09-14T19:44:26.661Z,98518.78
2022-09-14T19:46:55.553Z,98523.91
2022-09-14T19:49:27.243Z,98518.50
2022-09-14T19:51:56.915Z,98519.00
2022-09-14T19:54:25.914Z,98529.78
2022-09-14T19:56:56.221Z,98528.72
2022-09-14T19:59:25.702Z,98531.34
2022-09-14T20:01:54.830Z,98529.06
2022-09-14T20:04:24.132Z,98526.44
2022-09-14T20:06:53.078Z,98519.12
2022-09-14T20:09:23.765Z,98512.16
2022-09-14T20:11:53.778Z,98514.44
2022-09-14T20:14:25.238Z,98508.69
2022-09-14T20:16:55.972Z,98514.94
2022-09-14T20:19:26.604Z,98512.75
2022-09-14T20:21:56.227Z,98506.19
2022-09-14T20:24:26.820Z,98502.09
2022-09-14T20:26:57.352Z,98495.47
2022-09-14T20:29:29.386Z,98501.00
2022-09-14T20:31:58.595Z,98509.16
2022-09-14T20:34:27.178Z,98509.28
2022-09-14T20:36:56.510Z,98498.84
2022-09-14T20:39:25.488Z,98492.37
2022-09-14T20:41:54.338Z,98494.63
2022-09-14T20:44:23.322Z,98494.53
2022-09-14T20:46:53.672Z,98490.44
2022-09-14T20:49:23.534Z,98480.34
2022-09-14T20:51:54.357Z,98478.91
2022-09-14T20:54:23.715Z,98485.66
2022-09-14T20:56:52.656Z,98479.75
2022-09-14T20:59:22.861Z,98484.69
2022-09-14T21:01:53.692Z,98485.28
2022-09-14T21:04:24.409Z,98492.34
2022-09-14T21:06:55.306Z,98489.94
2022-09-14T21:09:25.469Z,98500.25
2022-09-14T21:11:54.415Z,98507.59
2022-09-14T21:14:23.486Z,98510.09
2022-09-14T21:16:56.760Z,98509.16
2022-09-14T21:19:28.010Z,98509.97
2022-09-14T21:21:57.300Z,98502.91
2022-09-14T21:24:26.265Z,98497.88
2022-09-14T21:26:55.026Z,98516.81
2022-09-14T21:29:24.673Z,98509.38
2022-09-14T21:31:54.999Z,98502.41
2022-09-14T21:34:26.265Z,98498.06
2022-09-14T21:36:54.831Z,98494.16
2022-09-14T21:39:27.286Z,98495.72
2022-09-14T21:41:59.095Z,98489.44
2022-09-14T21:44:31.921Z,98494.72
2022-09-14T21:47:02.525Z,98489.81
2022-09-14T21:49:31.296Z,98500.47
2022-09-14T21:51:59.977Z,98499.28
2022-09-14T21:54:29.175Z,98499.31
2022-09-14T21:56:57.736Z,98513.94
2022-09-14T21:59:26.448Z,98509.97
2022-09-14T22:01:55.345Z,98501.59
2022-09-14T22:04:26.909Z,98496.31
2022-09-14T22:06:57.095Z,98490.53
2022-09-14T22:09:28.844Z,98486.47
2022-09-14T22:11:58.054Z,98486.34
2022-09-14T22:14:28.668Z,98484.16
2022-09-14T22:16:57.417Z,98486.69
2022-09-14T22:19:29.461Z,98493.53
2022-09-14T22:21:58.391Z,98503.50
2022-09-14T22:24:37.045Z,98496.91
2022-09-14T22:27:08.336Z,98495.44
2022-09-14T22:29:37.735Z,98500.16
2022-09-14T22:32:07.256Z,98508.44
2022-09-14T22:34:37.898Z,98503.03
2022-09-14T22:37:06.704Z,98507.94
2022-09-14T22:39:35.396Z,98502.31
2022-09-14T22:42:04.531Z,98504.12
2022-09-14T22:44:33.090Z,98491.53
2022-09-14T22:47:01.685Z,98493.06
2022-09-14T22:49:30.852Z,98489.34
2022-09-14T22:52:00.797Z,98491.37
2022-09-14T22:54:29.345Z,98484.19
2022-09-14T22:56:58.290Z,98484.44
2022-09-14T22:59:26.920Z,98483.81
2022-09-14T23:01:55.540Z,98486.94
2022-09-14T23:04:24.604Z,98494.75
2022-09-14T23:06:53.177Z,98486.09
2022-09-14T23:09:23.340Z,98488.25
2022-09-14T23:11:56.084Z,98488.84
2022-09-14T23:14:24.767Z,98480.78
2022-09-14T23:16:53.677Z,98476.81
2022-09-14T23:19:22.322Z,98463.00
2022-09-14T23:21:50.934Z,98467.50
2022-09-14T23:24:19.804Z,98465.69
2022-09-14T23:26:49.854Z,98471.31
2022-09-14T23:29:18.635Z,98487.72
2022-09-14T23:31:47.562Z,98489.75
2022-09-14T23:34:16.780Z,98486.00
2022-09-14T23:36:45.408Z,98491.28
2022-09-14T23:39:14.526Z,98495.91
2022-09-14T23:41:43.280Z,98497.19
2022-09-14T23:44:13.521Z,98482.81
2022-09-14T23:46:42.779Z,98483.53
2022-09-14T23:49:12.493Z,98479.88
2022-09-14T23:51:41.201Z,98480.62
2022-09-14T23:54:10.595Z,98456.38
2022-09-14T23:56:41.915Z,98443.06
2022-09-14T23:59:13.963Z,98430.41
